Time;durP1;ratioP1;P1;durP2;ratioP2;P2;SDS_P1;SDS_P2;PMS_P1;PMS_P2;Temp;Humidity;BMP_temperature;BMP_pressure;BME280_temperature;BME280_humidity;BME280_pressure;Samples;Min_cycle;Max_cycle;Signal;HPM_P1;HPM_P2
2021/08/25 00:00:18;;;;;;;;;;;15.30;99.90;;;;;;1764518;81;20185;-72
2021/08/25 00:02:45;;;;;;;;;;;15.30;99.90;;;;;;1764507;81;20115;-74
2021/08/25 00:05:11;;;;;;;;;;;15.20;99.90;;;;;;1764725;80;20254;-75
2021/08/25 00:07:38;;;;;;;;;;;14.90;99.90;;;;;;1764562;80;20456;-75
2021/08/25 00:10:05;;;;;;;;;;;15.00;99.90;;;;;;1764641;81;20143;-74
2021/08/25 00:12:32;;;;;;;;;;;15.10;99.90;;;;;;1764445;80;20193;-73
2021/08/25 00:14:59;;;;;;;;;;;15.20;99.90;;;;;;1764885;80;20455;-73
2021/08/25 00:17:27;;;;;;;;;;;15.10;99.90;;;;;;1764919;80;20183;-73
2021/08/25 00:19:54;;;;;;;;;;;15.00;99.90;;;;;;1764636;81;20507;-75
2021/08/25 00:22:21;;;;;;;;;;;15.10;99.90;;;;;;1764342;81;20182;-75
2021/08/25 00:24:51;;;;;;;;;;;15.00;99.90;;;;;;1764504;80;20664;-75
2021/08/25 00:27:17;;;;;;;;;;;15.00;99.90;;;;;;1764702;81;20424;-75
2021/08/25 00:29:44;;;;;;;;;;;15.00;99.90;;;;;;1764631;81;20229;-74
2021/08/25 00:32:11;;;;;;;;;;;14.90;99.90;;;;;;1764703;81;20213;-75
2021/08/25 00:34:38;;;;;;;;;;;15.00;99.90;;;;;;1764836;80;20228;-74
2021/08/25 00:37:05;;;;;;;;;;;15.00;99.90;;;;;;1764848;80;20189;-75
2021/08/25 00:39:31;;;;;;;;;;;15.10;99.90;;;;;;1765040;81;20116;-75
2021/08/25 00:42:18;;;;;;;;;;;15.00;99.90;;;;;;1764686;80;20178;-74
2021/08/25 00:44:45;;;;;;;;;;;15.00;99.90;;;;;;1888729;75;20507;-75
2021/08/25 00:47:13;;;;;;;;;;;14.70;99.90;;;;;;1902126;75;20487;-75
2021/08/25 00:49:40;;;;;;;;;;;14.70;99.90;;;;;;1902148;75;20190;-74
2021/08/25 00:52:07;;;;;;;;;;;14.80;99.90;;;;;;1901947;75;20432;-75
2021/08/25 00:54:34;;;;;;;;;;;14.70;99.90;;;;;;1902152;75;20138;-75
2021/08/25 00:57:01;;;;;;;;;;;14.70;99.90;;;;;;1901984;75;20174;-75
2021/08/25 00:59:27;;;;;;;;;;;14.70;99.90;;;;;;1901992;75;20186;-75
2021/08/25 01:01:56;;;;;;;;;;;14.70;99.90;;;;;;1901852;75;20151;-75
2021/08/25 01:04:24;;;;;;;;;;;14.80;99.90;;;;;;1900973;75;20177;-75
2021/08/25 01:06:51;;;;;;;;;;;14.80;99.90;;;;;;1900923;75;20198;-74
2021/08/25 01:09:18;;;;;;;;;;;14.80;99.90;;;;;;1901893;75;20232;-74
2021/08/25 01:11:48;;;;;;;;;;;14.70;99.90;;;;;;1901569;75;20171;-75
2021/08/25 01:14:14;;;;;;;;;;;14.70;99.90;;;;;;1901721;75;20523;-75
2021/08/25 01:16:41;;;;;;;;;;;14.70;99.90;;;;;;1901921;75;20194;-75
2021/08/25 01:19:10;;;;;;;;;;;14.70;99.90;;;;;;1902141;75;20209;-75
2021/08/25 01:21:36;;;;;;;;;;;14.60;99.90;;;;;;1901084;75;20146;-75
2021/08/25 01:24:03;;;;;;;;;;;14.50;99.90;;;;;;1902157;75;20146;-74
2021/08/25 01:26:32;;;;;;;;;;;14.60;99.90;;;;;;1902183;75;20275;-75
2021/08/25 01:28:59;;;;;;;;;;;14.60;99.90;;;;;;1901999;75;20205;-74
2021/08/25 01:31:27;;;;;;;;;;;14.60;99.90;;;;;;1902021;75;20193;-75
2021/08/25 01:34:05;;;;;;;;;;;14.70;99.90;;;;;;1902059;75;20205;-75
2021/08/25 01:36:32;;;;;;;;;;;14.60;99.90;;;;;;1902224;75;20184;-75
2021/08/25 01:38:58;;;;;;;;;;;14.60;99.90;;;;;;1902060;75;20209;-75
2021/08/25 01:41:27;;;;;;;;;;;14.60;99.90;;;;;;1901917;75;20428;-75
2021/08/25 01:43:55;;;;;;;;;;;14.50;99.90;;;;;;1902187;75;20147;-75
2021/08/25 01:46:29;;;;;;;;;;;14.50;99.90;;;;;;1902119;75;20150;-75
2021/08/25 01:48:56;;;;;;;;;;;14.40;99.90;;;;;;1902079;75;20142;-75
2021/08/25 01:51:27;;;;;;;;;;;14.50;99.90;;;;;;1901961;75;20193;-75
2021/08/25 01:53:53;;;;;;;;;;;14.50;99.90;;;;;;1902137;75;20150;-75
2021/08/25 01:56:20;;;;;;;;;;;14.40;99.90;;;;;;1902010;75;20251;-74
2021/08/25 01:58:47;;;;;;;;;;;14.30;99.90;;;;;;1902119;75;20193;-74
2021/08/25 02:01:14;;;;;;;;;;;14.30;99.90;;;;;;1902079;75;20416;-75
2021/08/25 02:03:41;;;;;;;;;;;14.30;99.90;;;;;;1902034;75;20331;-75
2021/08/25 02:06:08;;;;;;;;;;;14.40;99.90;;;;;;1902361;75;20139;-75
2021/08/25 02:08:35;;;;;;;;;;;14.40;99.90;;;;;;1902083;75;20190;-75
2021/08/25 02:11:01;;;;;;;;;;;14.40;99.90;;;;;;1901430;75;20489;-75
2021/08/25 02:13:29;;;;;;;;;;;14.40;99.90;;;;;;1902073;75;20150;-75
2021/08/25 02:15:55;;;;;;;;;;;14.30;99.90;;;;;;1902047;75;20186;-75
2021/08/25 02:18:22;;;;;;;;;;;14.30;99.90;;;;;;1902191;75;20421;-74
2021/08/25 02:20:49;;;;;;;;;;;14.30;99.90;;;;;;1901967;74;20178;-74
2021/08/25 02:23:16;;;;;;;;;;;14.30;99.90;;;;;;1902151;75;20494;-75
2021/08/25 02:25:43;;;;;;;;;;;14.30;99.90;;;;;;1902125;75;20422;-75
2021/08/25 02:28:10;;;;;;;;;;;14.30;99.90;;;;;;1902081;75;20209;-75
2021/08/25 02:30:37;;;;;;;;;;;14.20;99.90;;;;;;1901983;75;20444;-75
2021/08/25 02:33:04;;;;;;;;;;;14.20;99.90;;;;;;1902076;75;20490;-75
2021/08/25 02:35:32;;;;;;;;;;;14.10;99.90;;;;;;1871596;73;20149;-72
2021/08/25 02:37:59;;;;;;;;;;;14.10;99.90;;;;;;1863187;77;20126;-70
2021/08/25 02:40:26;;;;;;;;;;;14.00;99.90;;;;;;1862873;77;20168;-71
2021/08/25 02:42:53;;;;;;;;;;;14.00;99.90;;;;;;1862979;77;20110;-71
2021/08/25 02:45:19;;;;;;;;;;;13.80;99.90;;;;;;1863269;76;20115;-71
2021/08/25 02:47:46;;;;;;;;;;;13.90;99.90;;;;;;1863220;77;20471;-71
2021/08/25 02:50:13;;;;;;;;;;;14.10;99.90;;;;;;1863080;77;20126;-71
2021/08/25 02:52:40;;;;;;;;;;;14.10;99.90;;;;;;1863010;77;20165;-71
2021/08/25 02:55:07;;;;;;;;;;;13.90;99.90;;;;;;1862969;76;20196;-71
2021/08/25 02:57:33;;;;;;;;;;;14.00;99.90;;;;;;1863097;77;20119;-70
2021/08/25 03:00:00;;;;;;;;;;;14.10;99.90;;;;;;1863183;76;20126;-70
2021/08/25 03:02:27;;;;;;;;;;;14.10;99.90;;;;;;1862759;77;20158;-70
2021/08/25 03:04:54;;;;;;;;;;;14.00;99.90;;;;;;1863355;76;20201;-70
2021/08/25 03:07:21;;;;;;;;;;;14.00;99.90;;;;;;1863034;77;20161;-71
2021/08/25 03:09:48;;;;;;;;;;;14.00;99.90;;;;;;1862976;77;20180;-70
2021/08/25 03:12:15;;;;;;;;;;;13.90;99.90;;;;;;1862939;76;20180;-70
2021/08/25 03:14:41;;;;;;;;;;;14.00;99.90;;;;;;1862881;76;20185;-70
2021/08/25 03:17:09;;;;;;;;;;;14.00;99.90;;;;;;1862930;77;20129;-70
2021/08/25 03:19:36;;;;;;;;;;;14.00;99.90;;;;;;1862992;76;20177;-70
2021/08/25 03:22:03;;;;;;;;;;;14.00;99.90;;;;;;1862765;76;20177;-70
2021/08/25 03:24:30;;;;;;;;;;;13.90;99.90;;;;;;1862977;76;20462;-70
2021/08/25 03:26:57;;;;;;;;;;;14.00;99.90;;;;;;1863089;76;20121;-70
2021/08/25 03:29:23;;;;;;;;;;;14.00;99.90;;;;;;1863171;77;20165;-70
2021/08/25 03:31:50;;;;;;;;;;;14.10;99.90;;;;;;1862762;77;20400;-72
2021/08/25 03:34:17;;;;;;;;;;;14.00;99.90;;;;;;1862802;76;20154;-72
2021/08/25 03:36:44;;;;;;;;;;;14.00;99.90;;;;;;1857788;76;20169;-72
2021/08/25 03:39:11;;;;;;;;;;;14.00;99.90;;;;;;1857633;77;20134;-71
2021/08/25 03:41:37;;;;;;;;;;;14.00;99.90;;;;;;1857312;77;20181;-71
2021/08/25 03:44:04;;;;;;;;;;;14.00;99.90;;;;;;1857753;76;20228;-71
2021/08/25 03:46:31;;;;;;;;;;;13.80;99.90;;;;;;1857789;77;20162;-72
2021/08/25 03:48:58;;;;;;;;;;;13.80;99.90;;;;;;1857790;77;20430;-71
2021/08/25 03:51:25;;;;;;;;;;;13.90;99.90;;;;;;1857408;77;20130;-71
2021/08/25 03:53:52;;;;;;;;;;;13.90;99.90;;;;;;1857817;76;20483;-71
2021/08/25 03:56:19;;;;;;;;;;;14.00;99.90;;;;;;1857629;77;20169;-71
2021/08/25 03:58:45;;;;;;;;;;;13.90;99.90;;;;;;1857889;77;20177;-72
2021/08/25 04:01:12;;;;;;;;;;;14.00;99.90;;;;;;1857523;76;20471;-71
2021/08/25 04:03:39;;;;;;;;;;;13.90;99.90;;;;;;1857727;76;20115;-71
2021/08/25 04:06:06;;;;;;;;;;;13.80;99.90;;;;;;1857914;77;20522;-72
2021/08/25 04:08:33;;;;;;;;;;;13.80;99.90;;;;;;1857732;76;20162;-72
2021/08/25 04:10:59;;;;;;;;;;;13.90;99.90;;;;;;1857048;77;20410;-71
2021/08/25 04:13:26;;;;;;;;;;;13.90;99.90;;;;;;1857686;76;20177;-71
2021/08/25 04:15:53;;;;;;;;;;;13.90;99.90;;;;;;1857615;77;20182;-71
2021/08/25 04:18:20;;;;;;;;;;;13.90;99.90;;;;;;1857722;77;20157;-72
2021/08/25 04:20:47;;;;;;;;;;;14.00;99.90;;;;;;1857385;76;20205;-71
2021/08/25 04:23:13;;;;;;;;;;;13.90;99.90;;;;;;1857687;77;20200;-71
2021/08/25 04:25:41;;;;;;;;;;;13.90;99.90;;;;;;1857742;76;20160;-72
2021/08/25 04:28:09;;;;;;;;;;;14.00;99.90;;;;;;1857722;77;20506;-72
2021/08/25 04:30:36;;;;;;;;;;;13.90;99.90;;;;;;1857475;77;20197;-72
2021/08/25 04:33:03;;;;;;;;;;;13.90;99.90;;;;;;1857647;76;20122;-72
2021/08/25 04:35:29;;;;;;;;;;;14.00;99.90;;;;;;1855673;76;20194;-72
2021/08/25 04:37:56;;;;;;;;;;;13.90;99.90;;;;;;1851492;77;20111;-71
2021/08/25 04:40:23;;;;;;;;;;;13.70;99.90;;;;;;1851262;77;20460;-70
2021/08/25 04:42:50;;;;;;;;;;;13.80;99.90;;;;;;1851228;77;20169;-70
2021/08/25 04:45:17;;;;;;;;;;;13.90;99.90;;;;;;1851397;76;20177;-70
2021/08/25 04:47:43;;;;;;;;;;;13.80;99.90;;;;;;1851409;77;20213;-70
2021/08/25 04:50:10;;;;;;;;;;;13.90;99.90;;;;;;1851607;77;20122;-70
2021/08/25 04:52:37;;;;;;;;;;;13.90;99.90;;;;;;1851128;77;20173;-70
2021/08/25 04:55:04;;;;;;;;;;;13.80;99.90;;;;;;1851292;76;20486;-70
2021/08/25 04:57:31;;;;;;;;;;;13.90;99.90;;;;;;1851361;77;20111;-70
2021/08/25 04:59:58;;;;;;;;;;;13.90;99.90;;;;;;1851299;77;20150;-70
2021/08/25 05:02:25;;;;;;;;;;;14.00;99.90;;;;;;1851121;77;20389;-70
2021/08/25 05:04:52;;;;;;;;;;;14.10;99.90;;;;;;1851406;76;20177;-70
2021/08/25 05:07:18;;;;;;;;;;;14.10;99.90;;;;;;1851550;77;20173;-70
2021/08/25 05:09:45;;;;;;;;;;;14.10;99.90;;;;;;1850820;77;20165;-70
2021/08/25 05:12:12;;;;;;;;;;;14.10;99.90;;;;;;1851191;77;20170;-70
2021/08/25 05:14:39;;;;;;;;;;;14.10;99.90;;;;;;1851338;76;20173;-70
2021/08/25 05:17:05;;;;;;;;;;;14.20;99.90;;;;;;1851474;77;20118;-71
2021/08/25 05:19:32;;;;;;;;;;;14.30;99.90;;;;;;1851523;77;20565;-71
2021/08/25 05:21:59;;;;;;;;;;;14.30;99.90;;;;;;1851317;77;20118;-71
2021/08/25 05:24:26;;;;;;;;;;;14.30;99.90;;;;;;1851391;76;20408;-72
2021/08/25 05:26:53;;;;;;;;;;;14.30;99.90;;;;;;1851439;77;20198;-71
2021/08/25 05:29:19;;;;;;;;;;;14.40;99.90;;;;;;1851487;77;20134;-71
2021/08/25 05:31:46;;;;;;;;;;;14.50;99.90;;;;;;1851192;77;20185;-71
2021/08/25 05:34:13;;;;;;;;;;;14.50;99.90;;;;;;1851651;76;20178;-71
2021/08/25 05:36:40;;;;;;;;;;;14.60;99.90;;;;;;1851524;77;20396;-71
2021/08/25 05:39:07;;;;;;;;;;;14.60;99.90;;;;;;1851380;77;20166;-71
2021/08/25 05:41:34;;;;;;;;;;;14.60;99.90;;;;;;1851341;77;20131;-71
2021/08/25 05:44:04;;;;;;;;;;;14.70;99.90;;;;;;1851329;76;20181;-71
2021/08/25 05:46:29;;;;;;;;;;;14.80;99.90;;;;;;1851082;77;20174;-71
2021/08/25 05:48:56;;;;;;;;;;;14.90;99.90;;;;;;1851553;77;20284;-71
2021/08/25 05:51:23;;;;;;;;;;;15.00;99.90;;;;;;1851435;77;20170;-71
2021/08/25 05:53:51;;;;;;;;;;;15.00;99.90;;;;;;1851307;76;20181;-71
2021/08/25 05:56:18;;;;;;;;;;;15.00;99.90;;;;;;1851671;77;20420;-70
2021/08/25 05:58:45;;;;;;;;;;;15.10;99.90;;;;;;1851288;77;20209;-72
2021/08/25 06:01:13;;;;;;;;;;;15.10;99.90;;;;;;1851234;77;20177;-72
2021/08/25 06:03:40;;;;;;;;;;;15.20;99.90;;;;;;1851566;76;20174;-72
2021/08/25 06:06:07;;;;;;;;;;;15.30;99.90;;;;;;1851572;77;20173;-71
2021/08/25 06:08:34;;;;;;;;;;;15.30;99.90;;;;;;1851545;77;20169;-72
2021/08/25 06:11:01;;;;;;;;;;;15.30;99.90;;;;;;1851384;77;20123;-72
2021/08/25 06:13:27;;;;;;;;;;;15.40;99.90;;;;;;1851443;76;20217;-72
2021/08/25 06:15:54;;;;;;;;;;;15.40;99.90;;;;;;1851512;77;20239;-72
2021/08/25 06:18:21;;;;;;;;;;;15.50;99.90;;;;;;1851495;77;20392;-71
2021/08/25 06:20:48;;;;;;;;;;;15.50;99.90;;;;;;1851275;77;20362;-72
2021/08/25 06:23:15;;;;;;;;;;;15.50;99.90;;;;;;1851386;77;20463;-71
2021/08/25 06:25:41;;;;;;;;;;;15.60;99.90;;;;;;1851544;76;20126;-71
2021/08/25 06:28:08;;;;;;;;;;;15.60;99.90;;;;;;1851378;77;20440;-71
2021/08/25 06:30:35;;;;;;;;;;;15.70;99.90;;;;;;1851168;77;20540;-71
2021/08/25 06:33:02;;;;;;;;;;;15.70;99.90;;;;;;1851411;77;20119;-71
2021/08/25 06:35:29;;;;;;;;;;;15.70;99.90;;;;;;1851445;76;20170;-71
2021/08/25 06:37:55;;;;;;;;;;;15.80;99.90;;;;;;1851632;77;20158;-71
2021/08/25 06:40:22;;;;;;;;;;;15.80;99.90;;;;;;1851430;76;20111;-71
2021/08/25 06:42:49;;;;;;;;;;;15.80;99.90;;;;;;1851453;77;20171;-71
2021/08/25 06:45:16;;;;;;;;;;;15.80;99.90;;;;;;1851425;76;20142;-70
2021/08/25 06:47:43;;;;;;;;;;;15.80;99.90;;;;;;1851560;77;20211;-71
2021/08/25 06:50:10;;;;;;;;;;;15.90;99.90;;;;;;1851425;77;20493;-71
2021/08/25 06:52:36;;;;;;;;;;;15.90;99.90;;;;;;1851307;77;20154;-71
2021/08/25 06:55:03;;;;;;;;;;;15.90;99.90;;;;;;1851505;76;20181;-71
2021/08/25 06:57:30;;;;;;;;;;;16.00;99.90;;;;;;1851629;77;20395;-71
2021/08/25 06:59:57;;;;;;;;;;;16.00;99.90;;;;;;1851359;77;20212;-71
2021/08/25 07:02:24;;;;;;;;;;;16.10;99.90;;;;;;1851202;76;20455;-71
2021/08/25 07:04:51;;;;;;;;;;;16.10;99.90;;;;;;1851649;76;20156;-71
2021/08/25 07:07:17;;;;;;;;;;;16.10;99.90;;;;;;1851467;77;20176;-71
2021/08/25 07:09:44;;;;;;;;;;;16.20;99.90;;;;;;1850980;77;20173;-71
2021/08/25 07:12:11;;;;;;;;;;;16.20;99.90;;;;;;1851206;77;20114;-71
2021/08/25 07:14:38;;;;;;;;;;;16.30;99.90;;;;;;1851451;76;20224;-71
2021/08/25 07:17:05;;;;;;;;;;;16.30;99.90;;;;;;1851518;77;20192;-71
2021/08/25 07:19:31;;;;;;;;;;;16.30;99.90;;;;;;1851711;77;20410;-71
2021/08/25 07:21:58;;;;;;;;;;;16.30;99.90;;;;;;1851321;77;20170;-71
2021/08/25 07:24:25;;;;;;;;;;;16.40;99.90;;;;;;1851537;76;20161;-71
2021/08/25 07:26:52;;;;;;;;;;;16.40;99.90;;;;;;1851603;77;20161;-71
2021/08/25 07:29:18;;;;;;;;;;;16.40;99.90;;;;;;1851481;77;20196;-71
2021/08/25 07:31:47;;;;;;;;;;;16.50;99.90;;;;;;1851420;77;20131;-70
2021/08/25 07:34:14;;;;;;;;;;;16.50;99.90;;;;;;1851443;76;20385;-71
2021/08/25 07:36:41;;;;;;;;;;;16.60;99.90;;;;;;1851012;77;20173;-71
2021/08/25 07:39:08;;;;;;;;;;;16.50;99.90;;;;;;1851297;77;20177;-71
2021/08/25 07:41:34;;;;;;;;;;;16.60;99.90;;;;;;1850948;77;20209;-71
2021/08/25 07:44:01;;;;;;;;;;;16.60;99.90;;;;;;1851187;76;20181;-71
2021/08/25 07:46:32;;;;;;;;;;;16.60;99.90;;;;;;1851229;77;20115;-71
2021/08/25 07:48:56;;;;;;;;;;;16.70;99.90;;;;;;1850704;77;20225;-72
2021/08/25 07:51:23;;;;;;;;;;;16.70;99.90;;;;;;1850940;77;20467;-71
2021/08/25 07:53:50;;;;;;;;;;;16.70;99.90;;;;;;1851308;76;20232;-71
2021/08/25 07:56:17;;;;;;;;;;;16.80;99.90;;;;;;1851269;77;20488;-72
2021/08/25 07:58:44;;;;;;;;;;;16.80;99.90;;;;;;1851393;77;20177;-70
2021/08/25 08:01:10;;;;;;;;;;;16.90;99.90;;;;;;1851002;77;20440;-71
2021/08/25 08:03:37;;;;;;;;;;;16.90;99.90;;;;;;1851177;76;20173;-71
2021/08/25 08:06:04;;;;;;;;;;;17.00;99.90;;;;;;1851288;77;20178;-71
2021/08/25 08:08:31;;;;;;;;;;;17.00;99.90;;;;;;1851285;77;20158;-71
2021/08/25 08:10:58;;;;;;;;;;;17.10;99.90;;;;;;1850526;77;20165;-71
2021/08/25 08:13:25;;;;;;;;;;;17.10;99.90;;;;;;1851186;77;20369;-71
2021/08/25 08:15:51;;;;;;;;;;;17.10;99.90;;;;;;1851109;77;20157;-72
2021/08/25 08:18:27;;;;;;;;;;;17.20;99.90;;;;;;1851179;77;20205;-71
2021/08/25 08:20:48;;;;;;;;;;;17.20;99.90;;;;;;1849563;77;20201;-72
2021/08/25 08:23:15;;;;;;;;;;;17.20;99.90;;;;;;1851425;77;20423;-71
2021/08/25 08:25:42;;;;;;;;;;;17.30;99.90;;;;;;1851322;76;20552;-72
2021/08/25 08:28:08;;;;;;;;;;;17.30;99.90;;;;;;1851112;77;20170;-71
2021/08/25 08:30:35;;;;;;;;;;;17.30;99.90;;;;;;1851110;77;20455;-71
2021/08/25 08:33:02;;;;;;;;;;;17.40;99.90;;;;;;1851120;77;20182;-71
2021/08/25 08:35:31;;;;;;;;;;;17.40;99.90;;;;;;1823750;74;20125;-73
2021/08/25 08:38:01;;;;;;;;;;;17.40;99.90;;;;;;1815901;77;20130;-73
2021/08/25 08:40:26;;;;;;;;;;;17.40;99.90;;;;;;1814713;79;20219;-73
2021/08/25 08:42:53;;;;;;;;;;;17.50;99.90;;;;;;1810712;78;20175;-73
2021/08/25 08:45:21;;;;;;;;;;;17.50;99.90;;;;;;1839548;77;20123;-73
2021/08/25 08:47:47;;;;;;;;;;;17.50;99.90;;;;;;1905366;75;20213;-74
2021/08/25 08:50:14;;;;;;;;;;;17.50;99.90;;;;;;1845266;77;20186;-73
2021/08/25 08:52:41;;;;;;;;;;;17.60;99.90;;;;;;1865194;77;20235;-74
2021/08/25 08:55:08;;;;;;;;;;;17.60;99.90;;;;;;1866370;77;20204;-74
2021/08/25 08:57:35;;;;;;;;;;;17.60;99.90;;;;;;1866376;77;20235;-74
2021/08/25 09:00:02;;;;;;;;;;;17.60;99.90;;;;;;1866304;76;20194;-73
2021/08/25 09:02:39;;;;;;;;;;;17.70;99.90;;;;;;1866122;77;20143;-74
2021/08/25 09:05:16;;;;;;;;;;;17.80;99.90;;;;;;1866273;76;20158;-73
2021/08/25 09:07:51;;;;;;;;;;;17.80;99.90;;;;;;1866390;77;20185;-74
2021/08/25 09:10:21;;;;;;;;;;;17.80;99.90;;;;;;1865706;77;20294;-74
2021/08/25 09:12:50;;;;;;;;;;;17.80;99.90;;;;;;1866291;77;20400;-74
2021/08/25 09:15:21;;;;;;;;;;;17.90;99.90;;;;;;1865083;76;20192;-74
2021/08/25 09:17:49;;;;;;;;;;;17.90;99.90;;;;;;1865463;77;20427;-74
2021/08/25 09:20:16;;;;;;;;;;;17.90;99.90;;;;;;1865230;77;20173;-75
2021/08/25 09:22:43;;;;;;;;;;;17.90;99.90;;;;;;1866306;77;20423;-74
2021/08/25 09:25:10;;;;;;;;;;;18.00;99.90;;;;;;1866329;76;20209;-74
2021/08/25 09:27:37;;;;;;;;;;;18.10;99.90;;;;;;1866236;77;20154;-74
2021/08/25 09:30:05;;;;;;;;;;;18.10;99.90;;;;;;1866246;77;20213;-75
2021/08/25 09:32:33;;;;;;;;;;;18.10;99.90;;;;;;1866088;76;20291;-74
2021/08/25 09:35:01;;;;;;;;;;;18.00;99.90;;;;;;1866500;76;20193;-75
2021/08/25 09:37:29;;;;;;;;;;;18.00;99.90;;;;;;1866664;77;20138;-75
2021/08/25 09:39:57;;;;;;;;;;;18.10;99.90;;;;;;1866613;77;20549;-75
2021/08/25 09:42:24;;;;;;;;;;;18.10;99.90;;;;;;1866719;77;20400;-74
2021/08/25 09:45:01;;;;;;;;;;;18.20;99.90;;;;;;1866531;76;20494;-74
2021/08/25 09:47:29;;;;;;;;;;;18.30;99.90;;;;;;1866623;77;20810;-74
2021/08/25 09:50:01;;;;;;;;;;;18.30;99.90;;;;;;1845211;77;20271;-74
2021/08/25 09:52:34;;;;;;;;;;;18.30;99.90;;;;;;1848000;77;20131;-74
2021/08/25 09:55:01;;;;;;;;;;;18.40;99.90;;;;;;1866644;76;20224;-74
2021/08/25 09:57:37;;;;;;;;;;;18.50;99.90;;;;;;1866828;77;20214;-74
2021/08/25 10:00:05;;;;;;;;;;;18.60;99.90;;;;;;1866759;77;20282;-74
2021/08/25 10:02:32;;;;;;;;;;;18.60;99.90;;;;;;1866652;77;20181;-74
2021/08/25 10:04:58;;;;;;;;;;;18.60;99.90;;;;;;1866847;76;20208;-75
2021/08/25 10:07:26;;;;;;;;;;;18.60;99.90;;;;;;1866724;77;20205;-74
2021/08/25 10:09:54;;;;;;;;;;;18.50;99.90;;;;;;1866281;77;20135;-74
2021/08/25 10:12:21;;;;;;;;;;;18.50;99.90;;;;;;1866530;77;20155;-74
2021/08/25 10:14:48;;;;;;;;;;;18.50;99.90;;;;;;1866676;76;20182;-74
2021/08/25 10:17:35;;;;;;;;;;;18.40;99.90;;;;;;1866784;77;20271;-74
2021/08/25 10:20:03;;;;;;;;;;;18.40;99.90;;;;;;1866325;77;20190;-74
2021/08/25 10:22:30;;;;;;;;;;;18.40;99.90;;;;;;1861665;77;20197;-74
2021/08/25 10:25:01;;;;;;;;;;;18.40;99.90;;;;;;1866660;76;20154;-74
2021/08/25 10:27:32;;;;;;;;;;;18.30;99.90;;;;;;1866882;77;20213;-74
2021/08/25 10:30:04;;;;;;;;;;;18.40;99.90;;;;;;1866795;77;20197;-74
2021/08/25 10:32:41;;;;;;;;;;;18.40;99.90;;;;;;1866618;77;20197;-74
2021/08/25 10:35:15;;;;;;;;;;;18.40;99.90;;;;;;1822958;77;20459;-74
2021/08/25 10:37:43;;;;;;;;;;;18.40;99.90;;;;;;1866790;77;20455;-74
2021/08/25 10:40:10;;;;;;;;;;;18.40;99.90;;;;;;1866735;77;20202;-74
2021/08/25 10:42:51;;;;;;;;;;;18.40;99.90;;;;;;1866331;77;20440;-74
2021/08/25 10:45:19;;;;;;;;;;;18.40;99.90;;;;;;1866552;76;20177;-74
2021/08/25 10:47:59;;;;;;;;;;;18.50;99.90;;;;;;1861754;77;20201;-74
2021/08/25 10:50:44;;;;;;;;;;;18.60;99.90;;;;;;1866867;77;20189;-74
2021/08/25 10:53:31;;;;;;;;;;;18.70;99.90;;;;;;1866842;77;20475;-74
2021/08/25 10:56:11;;;;;;;;;;;18.70;99.90;;;;;;1866729;75;20147;-75
2021/08/25 10:58:42;;;;;;;;;;;18.70;99.90;;;;;;1866767;77;20185;-75
2021/08/25 11:01:30;;;;;;;;;;;18.70;99.90;;;;;;1865307;77;20236;-75
2021/08/25 11:03:59;;;;;;;;;;;18.80;99.90;;;;;;1866621;76;20486;-73
2021/08/25 11:06:39;;;;;;;;;;;18.90;99.90;;;;;;1866823;77;20193;-73
2021/08/25 11:09:10;;;;;;;;;;;19.00;99.90;;;;;;1866795;77;20150;-74
2021/08/25 11:11:37;;;;;;;;;;;18.90;99.90;;;;;;1865695;77;20212;-74
2021/08/25 11:14:04;;;;;;;;;;;18.80;99.90;;;;;;1866653;76;20546;-74
2021/08/25 11:16:30;;;;;;;;;;;18.90;99.90;;;;;;1866750;77;20256;-74
2021/08/25 11:18:57;;;;;;;;;;;18.90;99.90;;;;;;1866702;77;20198;-74
2021/08/25 11:21:24;;;;;;;;;;;19.10;99.90;;;;;;1866477;77;20308;-74
2021/08/25 11:23:53;;;;;;;;;;;19.10;99.90;;;;;;1866617;76;20306;-74
2021/08/25 11:26:20;;;;;;;;;;;19.00;99.90;;;;;;1865772;77;20185;-74
2021/08/25 11:28:46;;;;;;;;;;;18.90;99.90;;;;;;1866657;77;20139;-74
2021/08/25 11:31:21;;;;;;;;;;;18.90;99.90;;;;;;1866638;77;20233;-74
2021/08/25 11:33:48;;;;;;;;;;;18.90;99.90;;;;;;1849658;76;20493;-74
2021/08/25 11:36:15;;;;;;;;;;;18.80;99.90;;;;;;1866656;77;20593;-74
2021/08/25 11:38:42;;;;;;;;;;;18.80;99.90;;;;;;1866674;77;20290;-74
2021/08/25 11:41:09;;;;;;;;;;;18.70;99.90;;;;;;1866534;77;20434;-74
2021/08/25 11:43:37;;;;;;;;;;;18.60;99.90;;;;;;1866636;77;20178;-74
2021/08/25 11:46:04;;;;;;;;;;;18.60;99.90;;;;;;1864475;77;20517;-74
2021/08/25 11:48:31;;;;;;;;;;;18.60;99.90;;;;;;1866642;76;20197;-74
2021/08/25 11:50:59;;;;;;;;;;;18.60;99.90;;;;;;1866307;77;20220;-74
2021/08/25 11:53:27;;;;;;;;;;;18.60;99.90;;;;;;1866768;77;20487;-74
2021/08/25 11:55:55;;;;;;;;;;;18.60;99.90;;;;;;1866558;76;20541;-74
2021/08/25 11:58:26;;;;;;;;;;;18.60;99.90;;;;;;1866834;77;20198;-73
2021/08/25 12:00:53;;;;;;;;;;;18.60;99.90;;;;;;1866511;77;20201;-73
2021/08/25 12:03:20;;;;;;;;;;;18.60;99.90;;;;;;1866523;77;20243;-74
2021/08/25 12:05:51;;;;;;;;;;;18.60;99.90;;;;;;1866869;76;20512;-73
2021/08/25 12:08:19;;;;;;;;;;;18.60;99.90;;;;;;1866834;76;20182;-73
2021/08/25 12:10:50;;;;;;;;;;;18.70;99.90;;;;;;1866071;77;20139;-73
2021/08/25 12:13:18;;;;;;;;;;;18.70;99.90;;;;;;1863997;77;20178;-74
2021/08/25 12:15:50;;;;;;;;;;;18.60;99.90;;;;;;1857171;76;20249;-73
2021/08/25 12:18:18;;;;;;;;;;;18.70;99.90;;;;;;1866809;77;20183;-73
2021/08/25 12:20:46;;;;;;;;;;;18.70;99.90;;;;;;1866323;77;20178;-72
2021/08/25 12:23:15;;;;;;;;;;;18.70;99.90;;;;;;1866670;77;20482;-72
2021/08/25 12:25:43;;;;;;;;;;;18.70;99.90;;;;;;1866552;76;20221;-73
2021/08/25 12:28:11;;;;;;;;;;;18.60;99.90;;;;;;1866838;77;20154;-73
2021/08/25 12:30:39;;;;;;;;;;;18.60;99.90;;;;;;1866460;77;20213;-73
2021/08/25 12:33:06;;;;;;;;;;;18.70;99.90;;;;;;1866829;77;20310;-73
2021/08/25 12:35:35;;;;;;;;;;;18.70;99.90;;;;;;1866711;76;20209;-74
2021/08/25 12:38:02;;;;;;;;;;;18.70;99.90;;;;;;1865422;77;20214;-73
2021/08/25 12:40:29;;;;;;;;;;;18.70;99.90;;;;;;1866573;77;20219;-73
2021/08/25 12:42:57;;;;;;;;;;;18.70;99.90;;;;;;1866557;77;20181;-73
2021/08/25 12:45:25;;;;;;;;;;;18.70;99.90;;;;;;1866733;76;20459;-73
2021/08/25 12:47:52;;;;;;;;;;;18.60;99.90;;;;;;1866655;77;20185;-73
2021/08/25 12:50:20;;;;;;;;;;;18.60;99.90;;;;;;1866516;76;20219;-73
2021/08/25 12:52:47;;;;;;;;;;;18.60;99.90;;;;;;1866658;77;20146;-73
2021/08/25 12:55:14;;;;;;;;;;;18.70;99.90;;;;;;1866675;76;20201;-73
2021/08/25 12:57:41;;;;;;;;;;;18.80;99.90;;;;;;1866770;77;20154;-73
2021/08/25 13:00:09;;;;;;;;;;;18.70;99.90;;;;;;1866752;77;20218;-73
2021/08/25 13:02:40;;;;;;;;;;;18.70;99.90;;;;;;1866399;77;20304;-73
2021/08/25 13:05:05;;;;;;;;;;;18.70;99.90;;;;;;1866169;76;20451;-72
2021/08/25 13:07:32;;;;;;;;;;;18.70;99.90;;;;;;1866774;77;20877;-73
2021/08/25 13:09:59;;;;;;;;;;;18.70;99.90;;;;;;1866720;77;20189;-73
2021/08/25 13:12:26;;;;;;;;;;;18.70;99.90;;;;;;1866563;76;20178;-73
2021/08/25 13:14:52;;;;;;;;;;;18.70;99.90;;;;;;1866597;76;20198;-73
2021/08/25 13:17:19;;;;;;;;;;;18.60;99.90;;;;;;1866642;77;20220;-72
2021/08/25 13:19:46;;;;;;;;;;;18.60;99.90;;;;;;1866549;77;20146;-73
2021/08/25 13:22:13;;;;;;;;;;;18.60;99.90;;;;;;1866506;77;20258;-73
2021/08/25 13:24:39;;;;;;;;;;;18.60;99.90;;;;;;1866715;76;20191;-73
2021/08/25 13:27:06;;;;;;;;;;;18.60;99.90;;;;;;1866919;77;20266;-73
2021/08/25 13:29:33;;;;;;;;;;;18.50;99.90;;;;;;1867072;77;20189;-72
2021/08/25 13:32:00;;;;;;;;;;;18.50;99.90;;;;;;1866953;77;20252;-73
2021/08/25 13:34:27;;;;;;;;;;;18.50;99.90;;;;;;1867039;76;20235;-73
2021/08/25 13:36:54;;;;;;;;;;;18.60;99.90;;;;;;1866958;77;20248;-73
2021/08/25 13:39:21;;;;;;;;;;;18.90;99.90;;;;;;1867249;77;20150;-73
2021/08/25 13:41:47;;;;;;;;;;;19.00;99.90;;;;;;1866796;77;20250;-73
2021/08/25 13:44:14;;;;;;;;;;;19.10;99.90;;;;;;1867154;76;20177;-73
2021/08/25 13:46:41;;;;;;;;;;;19.00;99.90;;;;;;1867031;77;20566;-73
2021/08/25 13:49:08;;;;;;;;;;;18.90;99.90;;;;;;1867111;77;20262;-73
2021/08/25 13:51:35;;;;;;;;;;;18.80;99.90;;;;;;1866842;77;20619;-73
2021/08/25 13:54:02;;;;;;;;;;;18.70;99.90;;;;;;1866987;76;20237;-73
2021/08/25 13:56:28;;;;;;;;;;;18.60;99.90;;;;;;1867003;77;20201;-73
2021/08/25 13:58:55;;;;;;;;;;;18.60;99.90;;;;;;1866675;76;20201;-73
2021/08/25 14:01:22;;;;;;;;;;;18.60;99.90;;;;;;1866723;77;20205;-73
2021/08/25 14:03:49;;;;;;;;;;;18.50;99.90;;;;;;1867008;76;20138;-73
2021/08/25 14:06:16;;;;;;;;;;;18.60;99.90;;;;;;1867075;76;20197;-73
2021/08/25 14:08:42;;;;;;;;;;;18.60;99.90;;;;;;1867076;77;20182;-73
2021/08/25 14:11:13;;;;;;;;;;;18.60;99.90;;;;;;1866838;77;20185;-73
2021/08/25 14:13:40;;;;;;;;;;;18.60;99.90;;;;;;1866982;77;20239;-73
2021/08/25 14:16:07;;;;;;;;;;;18.60;99.90;;;;;;1866977;76;20467;-73
2021/08/25 14:18:34;;;;;;;;;;;18.50;99.90;;;;;;1867055;77;20143;-73